Airfield :
LOGIN :

Register | Disclaimer

   EN    FR    IT 

 










Legend :    VFR   Marginal VFR   IFR   Intensive IFR   Very Intensive IFR
Visi :
Ceiling :
>= 8 km
>= 3000ft
5 to 8 km
1000 to 3000 ft
1500m to 5 km
500 to 1000 ft
800 to 1500m
200 to 500 ft
< 800m
< 200 ft
Symbols :   Thunderstorms  Fog  Heavy snow  Heavy precipitations  Wind > 20 kt
SIGMETs :     Misc.  Thunderstorms  Icing  Turbulence  Mountain Waves  Volcanic Ashes







- Airport Elevation : 1276 ft
- IATA code : STR


EDDS - Stuttgart

CURRENT METAR :
  • 220020Z VRB01KT 9999 SCT006 BKN110 17/16 Q1013

EXPIRED METARs :
  • 212350Z VRB03KT 9999 -RA FEW006 OVC096 17/16 Q1013
  • 212320Z VRB03KT 9999 -RA SCT004 OVC096 17/16 Q1013 RERA
  • 212302Z VRB04KT 9999 -RA BKN004 OVC092 17/16 Q1013 RERA
  • 212250Z 09009KT 070V140 9999 RA BKN005 OVC092 17/16 Q1013
  • 212220Z VRB02KT 9999 RA FEW008 OVC060 17/16 Q1013
  • 212150Z 27006KT 210V310 9999 SHRA FEW007 SCT017CB BKN062 17/16 Q1014 RETS
  • 212141Z 29004KT 240V320 9999 SHRA VCTS FEW008 SCT017CB BKN066 17/16 Q1014 RETS

TAF TAF EDDS
Valid from the 22 at 00:00 until the 23 at 00:00 UTC


212300Z 2200/2224 VRB03KT 9999 FEW030 SCT045
TEMPO 2200/2205 SHRA BKN030CB
PROB40
TEMPO 2200/2204 3000 TSRA SCT004 BKN011 BKN020CB
BECMG 2206/2209 21007KT
TEMPO 2211/2219 SHRA SCT035CB
PROB30
TEMPO 2214/2218 24015G25KT TSRA BKN025CB
TEMPO 2221/2224 SHRA BKN030CB
No reported NOTAMs for that airfield.
1 SIGMET reported for the Langen FIR (EDGG) :
 
Embedded thunderstorms
EDGG SIGMET 4 VALID 212300/220100 EDZF
EDGG LANGEN FIR EMBD TS OBS WI N5035 E00907 - N4940 E01048 - N4845 E00949 - N4936 E00818 - N4940 E00640 - N5021 E00650 - N5035 E00907 TOP FL400 MOV NE NC=



MET'MAP, your aeronautical weather chart ! - Copyright ORBIFLY December 2007 - Disclaimer

ORBIFLY MET'MAP TEAM :

Programming & Development : Alexandra Zaïnal
Concept & Development : Baudouin d'Aumeries
Co-Development & Prog : Marc-Olivier Méhu
Technical & hardware support : Manuel Goepfert

Contact : metmap@orbifly.com




SOURCES & CREDITS :

   NOAA